Time;durP1;ratioP1;P1;durP2;ratioP2;P2;SDS_P1;SDS_P2;PMS_P1;PMS_P2;Temp;Humidity;BMP_temperature;BMP_pressure;BME280_temperature;BME280_humidity;BME280_pressure;Samples;Min_cycle;Max_cycle;Signal;HPM_P1;HPM_P2
2023/02/10 00:01:29;;;;;;;31.70;16.07;;;;;;;;;;5010745;28;20219;-71
2023/02/10 00:03:56;;;;;;;27.13;15.53;;;;;;;;;;5013668;28;20200;-70
2023/02/10 00:06:23;;;;;;;29.80;15.90;;;;;;;;;;5011942;28;20821;-70
2023/02/10 00:08:49;;;;;;;34.60;15.93;;;;;;;;;;5012716;28;20289;-71
2023/02/10 00:11:15;;;;;;;32.50;17.00;;;;;;;;;;5012134;28;20759;-71
2023/02/10 00:13:41;;;;;;;33.00;15.30;;;;;;;;;;5013188;28;20683;-71
2023/02/10 00:16:07;;;;;;;29.57;16.00;;;;;;;;;;5005143;28;20185;-70
2023/02/10 00:18:33;;;;;;;32.93;16.47;;;;;;;;;;5010418;28;20220;-71
2023/02/10 00:21:08;;;;;;;35.83;17.97;;;;;;;;;;5008118;28;20665;-71
2023/02/10 00:23:33;;;;;;;39.03;15.70;;;;;;;;;;5007758;28;20183;-70
2023/02/10 00:26:01;;;;;;;33.10;16.50;;;;;;;;;;5008765;28;20171;-71
2023/02/10 00:28:26;;;;;;;34.57;17.63;;;;;;;;;;5012256;28;20625;-71
2023/02/10 00:30:51;;;;;;;28.03;15.10;;;;;;;;;;5011276;28;20187;-70
2023/02/10 00:33:17;;;;;;;36.67;17.03;;;;;;;;;;5013106;28;20219;-70
2023/02/10 00:35:43;;;;;;;36.63;16.50;;;;;;;;;;5001825;28;20195;-70
2023/02/10 00:38:08;;;;;;;34.10;15.40;;;;;;;;;;5012624;28;20174;-71
2023/02/10 00:40:33;;;;;;;30.53;16.90;;;;;;;;;;5015177;28;20197;-71
2023/02/10 00:42:58;;;;;;;31.70;17.47;;;;;;;;;;5004753;28;20319;-71
2023/02/10 00:45:23;;;;;;;35.20;15.87;;;;;;;;;;5000464;28;20210;-70
2023/02/10 00:47:49;;;;;;;27.97;15.40;;;;;;;;;;5015437;28;20484;-70
2023/02/10 00:50:14;;;;;;;29.27;15.30;;;;;;;;;;5016695;28;20660;-71
2023/02/10 00:52:40;;;;;;;28.30;15.87;;;;;;;;;;5013208;28;20210;-70
2023/02/10 00:55:05;;;;;;;26.27;14.43;;;;;;;;;;5015485;28;20186;-70
2023/02/10 00:57:30;;;;;;;27.53;14.03;;;;;;;;;;5015663;28;20239;-71
2023/02/10 00:59:55;;;;;;;28.73;13.53;;;;;;;;;;5016007;28;20234;-70
2023/02/10 01:02:22;;;;;;;29.40;14.73;;;;;;;;;;5010604;28;20251;-70
2023/02/10 01:04:47;;;;;;;32.40;14.87;;;;;;;;;;5012837;28;20182;-70
2023/02/10 01:07:12;;;;;;;37.40;15.20;;;;;;;;;;5012065;28;20678;-70
2023/02/10 01:09:39;;;;;;;28.97;13.87;;;;;;;;;;5018229;28;20183;-71
2023/02/10 01:12:04;;;;;;;27.80;13.47;;;;;;;;;;5015256;28;20586;-70
2023/02/10 01:14:29;;;;;;;23.23;13.07;;;;;;;;;;5006841;28;20232;-70
2023/02/10 01:16:54;;;;;;;24.90;12.83;;;;;;;;;;5000188;28;20183;-71
2023/02/10 01:19:20;;;;;;;23.33;12.80;;;;;;;;;;5012766;28;20208;-71
2023/02/10 01:21:45;;;;;;;18.47;11.23;;;;;;;;;;5014939;28;20198;-71
2023/02/10 01:24:10;;;;;;;25.17;13.47;;;;;;;;;;5016421;28;20174;-70
2023/02/10 01:26:35;;;;;;;28.10;13.13;;;;;;;;;;5013150;28;20636;-70
2023/02/10 01:29:00;;;;;;;30.20;15.03;;;;;;;;;;5013754;28;20185;-71
2023/02/10 01:31:26;;;;;;;26.57;14.37;;;;;;;;;;5008144;28;20580;-70
2023/02/10 01:33:52;;;;;;;23.83;12.53;;;;;;;;;;5013558;28;20186;-70
2023/02/10 01:36:18;;;;;;;25.00;12.53;;;;;;;;;;5013755;28;20667;-72
2023/02/10 01:38:45;;;;;;;22.37;13.03;;;;;;;;;;5015593;28;20211;-72
2023/02/10 01:41:10;;;;;;;23.43;12.23;;;;;;;;;;5019514;28;20922;-70
2023/02/10 01:43:54;;;;;;;25.87;13.10;;;;;;;;;;5014171;28;20174;-71
2023/02/10 01:46:19;;;;;;;24.93;12.93;;;;;;;;;;5017279;28;20213;-71
2023/02/10 01:48:44;;;;;;;23.60;13.00;;;;;;;;;;5002352;28;20214;-71
2023/02/10 01:51:09;;;;;;;21.73;11.87;;;;;;;;;;5016285;28;20551;-71
2023/02/10 01:53:34;;;;;;;22.73;12.60;;;;;;;;;;5011964;28;20670;-70
2023/02/10 01:56:01;;;;;;;25.63;13.03;;;;;;;;;;5017148;28;20182;-70
2023/02/10 01:58:28;;;;;;;27.17;12.53;;;;;;;;;;5012634;28;20755;-70
2023/02/10 02:00:53;;;;;;;25.43;12.63;;;;;;;;;;5014001;28;20182;-70
2023/02/10 02:03:18;;;;;;;28.80;12.77;;;;;;;;;;5013915;28;20194;-70
2023/02/10 02:05:44;;;;;;;29.93;12.93;;;;;;;;;;5012080;28;20191;-70
2023/02/10 02:08:13;;;;;;;25.73;12.80;;;;;;;;;;5012709;28;20186;-70
2023/02/10 02:10:41;;;;;;;22.57;12.40;;;;;;;;;;5011130;28;20681;-70
2023/02/10 02:13:15;;;;;;;25.47;12.90;;;;;;;;;;5012889;28;20268;-70
2023/02/10 02:15:44;;;;;;;25.77;11.93;;;;;;;;;;5005126;28;20206;-70
2023/02/10 02:18:09;;;;;;;23.47;13.03;;;;;;;;;;5013082;28;21878;-70
2023/02/10 02:20:53;;;;;;;28.13;13.90;;;;;;;;;;5011149;28;20580;-71
2023/02/10 02:23:33;;;;;;;31.13;13.80;;;;;;;;;;5012504;28;20255;-71
2023/02/10 02:26:14;;;;;;;27.03;13.20;;;;;;;;;;5003294;28;20182;-71
2023/02/10 02:28:58;;;;;;;25.57;13.00;;;;;;;;;;5011538;28;20187;-70
2023/02/10 02:31:23;;;;;;;24.77;13.00;;;;;;;;;;5008346;28;20708;-71
2023/02/10 02:33:55;;;;;;;25.77;14.27;;;;;;;;;;5012771;28;20269;-71
2023/02/10 02:36:23;;;;;;;25.40;13.70;;;;;;;;;;5017601;28;20175;-71
2023/02/10 02:38:48;;;;;;;29.80;14.67;;;;;;;;;;5015974;28;20210;-71
2023/02/10 02:41:21;;;;;;;25.97;13.83;;;;;;;;;;5020513;28;20191;-71
2023/02/10 02:43:46;;;;;;;29.50;14.13;;;;;;;;;;5014814;28;20293;-71
2023/02/10 02:46:27;;;;;;;26.53;13.83;;;;;;;;;;5014910;28;20225;-71
2023/02/10 02:49:07;;;;;;;26.00;14.17;;;;;;;;;;5009342;28;20182;-71
2023/02/10 02:51:33;;;;;;;30.57;13.23;;;;;;;;;;5019330;28;20213;-71
2023/02/10 02:54:20;;;;;;;27.40;13.67;;;;;;;;;;5016203;28;20179;-71
2023/02/10 02:56:47;;;;;;;29.17;14.70;;;;;;;;;;5016367;28;20727;-71
2023/02/10 02:59:25;;;;;;;30.60;13.67;;;;;;;;;;5017758;28;20198;-71
2023/02/10 03:01:57;;;;;;;25.40;13.17;;;;;;;;;;5018968;28;20226;-71
2023/02/10 03:04:23;;;;;;;27.37;14.17;;;;;;;;;;5016711;28;20174;-71
2023/02/10 03:06:48;;;;;;;28.67;14.93;;;;;;;;;;5016048;28;20179;-71
2023/02/10 03:09:13;;;;;;;29.63;13.87;;;;;;;;;;5016110;28;20613;-71
2023/02/10 03:11:38;;;;;;;28.97;14.67;;;;;;;;;;5013625;28;20257;-71
2023/02/10 03:14:04;;;;;;;33.30;15.07;;;;;;;;;;5012212;28;20174;-70
2023/02/10 03:16:29;;;;;;;29.57;13.80;;;;;;;;;;5018777;28;20183;-71
2023/02/10 03:18:54;;;;;;;28.17;14.30;;;;;;;;;;5015004;28;20265;-71
2023/02/10 03:21:19;;;;;;;34.07;15.30;;;;;;;;;;5017141;28;20203;-71
2023/02/10 03:23:45;;;;;;;29.07;15.10;;;;;;;;;;5017272;28;20244;-71
2023/02/10 03:26:10;;;;;;;39.47;15.50;;;;;;;;;;5015379;28;20175;-71
2023/02/10 03:28:35;;;;;;;32.97;15.10;;;;;;;;;;5015856;28;20171;-71
2023/02/10 03:31:04;;;;;;;34.20;15.13;;;;;;;;;;5007039;28;20191;-72
2023/02/10 03:33:29;;;;;;;34.30;15.13;;;;;;;;;;5011423;28;20194;-71
2023/02/10 03:35:55;;;;;;;32.23;16.00;;;;;;;;;;5017213;28;20183;-69
2023/02/10 03:38:20;;;;;;;35.57;16.43;;;;;;;;;;5015750;28;20264;-69
2023/02/10 03:40:48;;;;;;;40.87;18.43;;;;;;;;;;5013703;28;20171;-70
2023/02/10 03:43:13;;;;;;;36.23;17.20;;;;;;;;;;5016334;28;20716;-70
2023/02/10 03:45:39;;;;;;;44.93;18.97;;;;;;;;;;5017987;28;20178;-70
2023/02/10 03:48:04;;;;;;;42.07;19.60;;;;;;;;;;5018464;28;20265;-70
2023/02/10 03:50:30;;;;;;;40.27;18.73;;;;;;;;;;5014816;28;20220;-70
2023/02/10 03:52:55;;;;;;;38.40;18.87;;;;;;;;;;5015120;28;20203;-70
2023/02/10 03:55:20;;;;;;;35.80;19.57;;;;;;;;;;5015929;28;20190;-70
2023/02/10 03:57:45;;;;;;;43.20;20.83;;;;;;;;;;5011599;28;20175;-70
2023/02/10 04:00:11;;;;;;;44.57;20.60;;;;;;;;;;5015261;28;20232;-70
2023/02/10 04:02:37;;;;;;;37.70;17.63;;;;;;;;;;5013685;28;20478;-70
2023/02/10 04:05:02;;;;;;;44.10;19.23;;;;;;;;;;5015672;28;20750;-70
2023/02/10 04:07:27;;;;;;;38.77;19.93;;;;;;;;;;5014849;28;20183;-70
2023/02/10 04:09:52;;;;;;;44.57;19.90;;;;;;;;;;5016679;28;20693;-70
2023/02/10 04:12:18;;;;;;;40.13;18.90;;;;;;;;;;5017677;28;20207;-70
2023/02/10 04:14:43;;;;;;;39.73;18.53;;;;;;;;;;5012293;28;20278;-70
2023/02/10 04:17:08;;;;;;;37.83;18.63;;;;;;;;;;5017607;28;20186;-70
2023/02/10 04:19:33;;;;;;;36.07;19.77;;;;;;;;;;5017049;28;20286;-70
2023/02/10 04:21:58;;;;;;;41.50;19.40;;;;;;;;;;5017859;28;20223;-70
2023/02/10 04:24:24;;;;;;;39.00;20.50;;;;;;;;;;5019291;28;20174;-70
2023/02/10 04:26:49;;;;;;;41.33;18.60;;;;;;;;;;5018883;28;20582;-70
2023/02/10 04:29:14;;;;;;;40.03;21.10;;;;;;;;;;5018908;28;20183;-70
2023/02/10 04:31:39;;;;;;;40.30;20.97;;;;;;;;;;5007273;28;20249;-70
2023/02/10 04:34:05;;;;;;;43.80;21.33;;;;;;;;;;5010454;28;20190;-70
2023/02/10 04:36:30;;;;;;;39.50;21.17;;;;;;;;;;5011866;28;20179;-70
2023/02/10 04:38:55;;;;;;;43.77;20.47;;;;;;;;;;5017919;28;20190;-70
2023/02/10 04:41:20;;;;;;;41.83;19.47;;;;;;;;;;5017535;28;20933;-70
2023/02/10 04:43:46;;;;;;;52.47;21.57;;;;;;;;;;5015156;28;20338;-70
2023/02/10 04:46:11;;;;;;;41.30;21.13;;;;;;;;;;5019947;28;20178;-70
2023/02/10 04:48:36;;;;;;;48.17;20.80;;;;;;;;;;5015429;28;20179;-69
2023/02/10 04:51:08;;;;;;;41.60;21.07;;;;;;;;;;5021386;28;20281;-70
2023/02/10 04:53:34;;;;;;;45.17;19.27;;;;;;;;;;5014289;28;20705;-70
2023/02/10 04:55:59;;;;;;;46.37;20.40;;;;;;;;;;5012893;28;20206;-70
2023/02/10 04:58:24;;;;;;;40.03;20.83;;;;;;;;;;5013472;28;20195;-70
2023/02/10 05:00:49;;;;;;;47.13;20.67;;;;;;;;;;5012238;28;20719;-70
2023/02/10 05:03:15;;;;;;;48.67;20.53;;;;;;;;;;5015050;28;20203;-70
2023/02/10 05:05:40;;;;;;;40.07;19.63;;;;;;;;;;5022398;28;20526;-70
2023/02/10 05:08:05;;;;;;;42.30;18.50;;;;;;;;;;5018566;28;20175;-70
2023/02/10 05:10:30;;;;;;;36.13;20.83;;;;;;;;;;5017448;28;20178;-70
2023/02/10 05:12:56;;;;;;;43.33;20.00;;;;;;;;;;5012447;28;20207;-70
2023/02/10 05:15:21;;;;;;;40.33;20.00;;;;;;;;;;5014762;28;20175;-70
2023/02/10 05:17:46;;;;;;;39.80;19.70;;;;;;;;;;5020299;28;20686;-70
2023/02/10 05:20:11;;;;;;;38.43;19.73;;;;;;;;;;5019151;28;20208;-70
2023/02/10 05:22:37;;;;;;;38.50;21.27;;;;;;;;;;5012258;28;20203;-70
2023/02/10 05:25:02;;;;;;;39.00;20.03;;;;;;;;;;5019511;28;20190;-70
2023/02/10 05:27:27;;;;;;;45.00;20.27;;;;;;;;;;5019316;28;20181;-71
2023/02/10 05:29:52;;;;;;;38.83;20.57;;;;;;;;;;5015901;28;20190;-70
2023/02/10 05:32:18;;;;;;;42.00;20.20;;;;;;;;;;5011802;28;20218;-70
2023/02/10 05:34:43;;;;;;;49.57;20.80;;;;;;;;;;5011678;28;20182;-70
2023/02/10 05:37:08;;;;;;;46.20;21.17;;;;;;;;;;5016442;28;20175;-70
2023/02/10 05:39:33;;;;;;;45.03;20.57;;;;;;;;;;5017248;28;20209;-70
2023/02/10 05:41:59;;;;;;;47.47;21.37;;;;;;;;;;5016311;28;20195;-71
2023/02/10 05:44:25;;;;;;;48.60;21.10;;;;;;;;;;5011439;28;20253;-70
2023/02/10 05:46:50;;;;;;;39.40;20.27;;;;;;;;;;5014160;28;20201;-70
2023/02/10 05:49:16;;;;;;;45.47;21.53;;;;;;;;;;5011636;28;20189;-70
2023/02/10 05:51:41;;;;;;;45.63;22.30;;;;;;;;;;5016479;28;20209;-70
2023/02/10 05:54:07;;;;;;;53.07;23.50;;;;;;;;;;5009294;28;20174;-70
2023/02/10 05:56:32;;;;;;;41.93;21.63;;;;;;;;;;5013791;28;20198;-70
2023/02/10 05:58:57;;;;;;;45.47;22.60;;;;;;;;;;5009763;28;20213;-71
2023/02/10 06:01:23;;;;;;;44.10;21.33;;;;;;;;;;5012184;28;20190;-71
2023/02/10 06:03:48;;;;;;;41.77;20.70;;;;;;;;;;5014469;28;20209;-70
2023/02/10 06:06:13;;;;;;;42.07;20.77;;;;;;;;;;5014855;28;20176;-70
2023/02/10 06:08:38;;;;;;;42.53;21.47;;;;;;;;;;5013524;28;20256;-71
2023/02/10 06:11:04;;;;;;;39.13;20.13;;;;;;;;;;5019041;28;20190;-71
2023/02/10 06:13:29;;;;;;;40.77;20.00;;;;;;;;;;5016056;28;20656;-71
2023/02/10 06:15:54;;;;;;;39.97;18.93;;;;;;;;;;5018472;28;20604;-71
2023/02/10 06:18:19;;;;;;;38.30;18.40;;;;;;;;;;5019769;28;20189;-70
2023/02/10 06:20:45;;;;;;;33.73;18.00;;;;;;;;;;5026668;28;20178;-70
2023/02/10 06:23:11;;;;;;;40.47;18.73;;;;;;;;;;5012530;28;20203;-70
2023/02/10 06:25:37;;;;;;;34.70;18.37;;;;;;;;;;5016900;28;20679;-70
2023/02/10 06:28:02;;;;;;;40.60;18.93;;;;;;;;;;5019771;28;20644;-70
2023/02/10 06:30:27;;;;;;;31.90;16.93;;;;;;;;;;5015346;28;20198;-70
2023/02/10 06:32:52;;;;;;;30.20;16.80;;;;;;;;;;5014263;28;20214;-70
2023/02/10 06:35:18;;;;;;;30.43;16.63;;;;;;;;;;5014232;28;20664;-70
2023/02/10 06:37:43;;;;;;;30.70;16.73;;;;;;;;;;5019142;28;20186;-70
2023/02/10 06:40:09;;;;;;;33.13;16.73;;;;;;;;;;5011117;28;20695;-70
2023/02/10 06:42:34;;;;;;;32.47;16.43;;;;;;;;;;5019805;28;20712;-70
2023/02/10 06:44:59;;;;;;;31.03;16.97;;;;;;;;;;5017455;28;20275;-70
2023/02/10 06:47:24;;;;;;;29.27;16.13;;;;;;;;;;5013559;28;20645;-70
2023/02/10 06:49:50;;;;;;;31.07;15.93;;;;;;;;;;5017318;28;20276;-71
2023/02/10 06:52:15;;;;;;;27.10;16.50;;;;;;;;;;5015837;28;20204;-71
2023/02/10 06:54:41;;;;;;;33.73;16.10;;;;;;;;;;5015013;28;20179;-71
2023/02/10 06:57:06;;;;;;;34.13;16.87;;;;;;;;;;5014845;28;20205;-69
2023/02/10 06:59:32;;;;;;;29.80;16.43;;;;;;;;;;5014686;28;20194;-69
2023/02/10 07:02:00;;;;;;;26.83;14.53;;;;;;;;;;5010976;28;20588;-69
2023/02/10 07:04:26;;;;;;;32.47;15.83;;;;;;;;;;5015522;28;20181;-70
2023/02/10 07:06:51;;;;;;;30.13;15.50;;;;;;;;;;5020693;28;20653;-70
2023/02/10 07:09:17;;;;;;;33.43;16.37;;;;;;;;;;5016109;28;20186;-70
2023/02/10 07:11:42;;;;;;;31.23;16.33;;;;;;;;;;5014367;28;20211;-70
2023/02/10 07:14:07;;;;;;;28.47;16.10;;;;;;;;;;5015348;28;20279;-69
2023/02/10 07:16:33;;;;;;;29.20;16.90;;;;;;;;;;5013200;28;20657;-70
2023/02/10 07:18:58;;;;;;;34.20;17.57;;;;;;;;;;5016549;28;20198;-69
2023/02/10 07:21:24;;;;;;;37.57;17.53;;;;;;;;;;5015009;28;20199;-70
2023/02/10 07:23:49;;;;;;;32.60;18.40;;;;;;;;;;5016054;28;20191;-70
2023/02/10 07:26:17;;;;;;;35.03;17.33;;;;;;;;;;5017097;28;20197;-70
2023/02/10 07:28:43;;;;;;;34.73;18.20;;;;;;;;;;5016538;28;20755;-70
2023/02/10 07:31:08;;;;;;;40.30;20.70;;;;;;;;;;5015104;28;20187;-70
2023/02/10 07:33:33;;;;;;;34.63;18.73;;;;;;;;;;5012291;28;20187;-71
2023/02/10 07:36:00;;;;;;;34.53;20.37;;;;;;;;;;5019418;28;20264;-70
2023/02/10 07:38:25;;;;;;;42.23;21.00;;;;;;;;;;5013551;28;20175;-71
2023/02/10 07:40:50;;;;;;;42.67;20.87;;;;;;;;;;5021293;28;20182;-71
2023/02/10 07:43:16;;;;;;;38.03;20.27;;;;;;;;;;5015531;28;20195;-71
2023/02/10 07:45:41;;;;;;;43.67;21.10;;;;;;;;;;5014337;28;20194;-71
2023/02/10 07:48:06;;;;;;;43.97;21.27;;;;;;;;;;5013099;28;20657;-71
2023/02/10 07:50:31;;;;;;;44.00;23.13;;;;;;;;;;5013653;28;20190;-71
2023/02/10 07:52:56;;;;;;;39.73;20.77;;;;;;;;;;5013395;28;20664;-71
2023/02/10 07:55:22;;;;;;;35.40;20.50;;;;;;;;;;5014206;28;20384;-71
2023/02/10 07:57:47;;;;;;;38.50;20.07;;;;;;;;;;5013146;28;20198;-71
2023/02/10 08:00:13;;;;;;;39.93;20.77;;;;;;;;;;5012758;28;20203;-70
2023/02/10 08:02:38;;;;;;;35.10;20.93;;;;;;;;;;4999244;28;20836;-71
2023/02/10 08:05:03;;;;;;;37.40;21.27;;;;;;;;;;5009837;28;20249;-71
2023/02/10 08:07:29;;;;;;;36.87;21.77;;;;;;;;;;4998211;28;20179;-71
2023/02/10 08:09:54;;;;;;;42.47;22.70;;;;;;;;;;5012774;28;20218;-71
2023/02/10 08:12:19;;;;;;;38.73;21.60;;;;;;;;;;5011268;28;20562;-71
2023/02/10 08:14:45;;;;;;;38.27;21.63;;;;;;;;;;5016409;28;20182;-71
2023/02/10 08:17:10;;;;;;;39.60;21.97;;;;;;;;;;5015361;28;20190;-71
2023/02/10 08:19:36;;;;;;;43.87;23.40;;;;;;;;;;5015929;28;20206;-72
2023/02/10 08:22:02;;;;;;;41.17;21.43;;;;;;;;;;5009891;28;20190;-72
2023/02/10 08:24:27;;;;;;;41.63;22.60;;;;;;;;;;5010328;28;20172;-72
2023/02/10 08:26:52;;;;;;;41.70;22.27;;;;;;;;;;5011710;28;20186;-72
2023/02/10 08:29:17;;;;;;;47.87;23.30;;;;;;;;;;5014547;28;20190;-72
2023/02/10 08:31:43;;;;;;;44.43;22.60;;;;;;;;;;4997618;28;20261;-72
2023/02/10 08:34:15;;;;;;;41.30;22.07;;;;;;;;;;5010058;28;20313;-72
2023/02/10 08:36:42;;;;;;;41.73;24.03;;;;;;;;;;5007559;28;20187;-72
2023/02/10 08:39:07;;;;;;;50.70;24.67;;;;;;;;;;5012708;28;20214;-72
2023/02/10 08:41:32;;;;;;;46.50;23.97;;;;;;;;;;5013126;28;20215;-72
2023/02/10 08:43:58;;;;;;;49.67;26.20;;;;;;;;;;5003790;28;20187;-72
2023/02/10 08:46:23;;;;;;;46.30;25.53;;;;;;;;;;5006896;28;20179;-72
2023/02/10 08:48:48;;;;;;;45.87;25.37;;;;;;;;;;5009176;28;20182;-72
2023/02/10 08:51:14;;;;;;;48.43;24.80;;;;;;;;;;5012008;28;20203;-72
2023/02/10 08:53:39;;;;;;;44.57;24.43;;;;;;;;;;5009978;28;20189;-72
2023/02/10 08:56:06;;;;;;;48.27;25.77;;;;;;;;;;5013238;28;20182;-72
2023/02/10 08:58:31;;;;;;;44.07;24.83;;;;;;;;;;5013600;28;20187;-72
2023/02/10 09:00:57;;;;;;;47.67;24.47;;;;;;;;;;5011696;28;20183;-72
2023/02/10 09:03:22;;;;;;;48.97;25.83;;;;;;;;;;5012150;28;20183;-72
2023/02/10 09:05:48;;;;;;;50.00;25.83;;;;;;;;;;5015504;28;20214;-71
2023/02/10 09:08:14;;;;;;;38.93;21.93;;;;;;;;;;5012024;28;20262;-71
2023/02/10 09:10:40;;;;;;;47.33;26.00;;;;;;;;;;5013422;28;20213;-71
2023/02/10 09:13:05;;;;;;;49.00;24.97;;;;;;;;;;5012386;28;20206;-72
2023/02/10 09:15:30;;;;;;;45.97;25.53;;;;;;;;;;5012946;28;20178;-73
2023/02/10 09:17:55;;;;;;;42.90;24.23;;;;;;;;;;5011960;28;20225;-72
2023/02/10 09:20:20;;;;;;;50.13;26.73;;;;;;;;;;5011767;28;20202;-72
2023/02/10 09:22:47;;;;;;;41.57;23.00;;;;;;;;;;5007431;28;20223;-73
2023/02/10 09:25:13;;;;;;;42.77;24.20;;;;;;;;;;5012378;28;20241;-72
2023/02/10 09:27:38;;;;;;;41.13;23.13;;;;;;;;;;5009431;28;20641;-73
2023/02/10 09:30:03;;;;;;;37.40;21.37;;;;;;;;;;5014481;28;20186;-72
2023/02/10 09:32:29;;;;;;;37.97;21.67;;;;;;;;;;5026085;22;20280;-72
2023/02/10 09:34:54;;;;;;;38.67;22.70;;;;;;;;;;5015534;28;20543;-72
2023/02/10 09:37:21;;;;;;;36.87;22.63;;;;;;;;;;5014149;28;20185;-72
2023/02/10 09:39:46;;;;;;;39.50;21.23;;;;;;;;;;5010407;28;20210;-71
2023/02/10 09:42:21;;;;;;;40.57;20.47;;;;;;;;;;5011076;28;20229;-72
2023/02/10 09:44:50;;;;;;;33.67;19.13;;;;;;;;;;5011741;28;20182;-72
2023/02/10 09:47:21;;;;;;;34.87;20.47;;;;;;;;;;5011408;28;20175;-72
2023/02/10 09:49:58;;;;;;;37.30;21.33;;;;;;;;;;5011387;28;20187;-72
2023/02/10 09:52:26;;;;;;;38.63;21.20;;;;;;;;;;5013766;28;20252;-72
2023/02/10 09:54:53;;;;;;;37.30;21.73;;;;;;;;;;5010607;28;20626;-72
2023/02/10 09:57:21;;;;;;;37.47;20.17;;;;;;;;;;5011031;28;20236;-72
2023/02/10 09:59:48;;;;;;;34.50;20.17;;;;;;;;;;5010129;28;20279;-71
2023/02/10 10:02:18;;;;;;;37.83;22.03;;;;;;;;;;5010210;28;20688;-71
2023/02/10 10:04:44;;;;;;;36.83;20.17;;;;;;;;;;5009943;28;20197;-71
2023/02/10 10:07:15;;;;;;;40.90;21.37;;;;;;;;;;5004486;28;20179;-71
2023/02/10 10:09:42;;;;;;;38.23;22.40;;;;;;;;;;5010042;28;20199;-71
2023/02/10 10:12:10;;;;;;;38.07;21.70;;;;;;;;;;5010511;28;20195;-71
2023/02/10 10:14:37;;;;;;;42.87;22.77;;;;;;;;;;5011678;28;20183;-71
2023/02/10 10:17:11;;;;;;;34.97;19.97;;;;;;;;;;5011277;28;20462;-71
2023/02/10 10:19:42;;;;;;;33.57;20.07;;;;;;;;;;5009634;28;20202;-71
2023/02/10 10:22:20;;;;;;;33.37;18.20;;;;;;;;;;5012949;28;20265;-72
2023/02/10 10:24:55;;;;;;;37.47;19.63;;;;;;;;;;5012124;28;20619;-71
2023/02/10 10:27:26;;;;;;;32.87;19.90;;;;;;;;;;5013216;28;20173;-71
2023/02/10 10:29:53;;;;;;;33.87;19.00;;;;;;;;;;5010683;28;20443;-71
2023/02/10 10:32:27;;;;;;;34.50;19.70;;;;;;;;;;5009419;28;20219;-72
2023/02/10 10:34:53;;;;;;;30.47;18.80;;;;;;;;;;5026739;28;20187;-71
2023/02/10 10:37:20;;;;;;;26.80;17.20;;;;;;;;;;5010340;28;20205;-72
2023/02/10 10:39:47;;;;;;;29.40;15.93;;;;;;;;;;5009492;28;20207;-71
2023/02/10 10:42:15;;;;;;;26.20;16.93;;;;;;;;;;5007946;28;20199;-71
2023/02/10 10:44:41;;;;;;;26.17;15.50;;;;;;;;;;5011206;28;20262;-71
2023/02/10 10:47:12;;;;;;;25.20;15.73;;;;;;;;;;5008163;28;20191;-71
2023/02/10 10:49:37;;;;;;;22.53;14.70;;;;;;;;;;5010074;28;20265;-72
2023/02/10 10:52:17;;;;;;;25.57;15.40;;;;;;;;;;5009152;28;20635;-71
2023/02/10 10:54:43;;;;;;;23.50;14.33;;;;;;;;;;5007516;28;20206;-71
2023/02/10 10:57:13;;;;;;;25.33;14.50;;;;;;;;;;5013659;28;20209;-71
2023/02/10 10:59:41;;;;;;;24.30;12.93;;;;;;;;;;5013701;28;20198;-71
2023/02/10 11:02:14;;;;;;;22.57;14.60;;;;;;;;;;5014759;28;20210;-71
2023/02/10 11:04:44;;;;;;;20.77;12.80;;;;;;;;;;5014689;28;20354;-71
2023/02/10 11:07:19;;;;;;;21.57;13.47;;;;;;;;;;5013420;28;20598;-71
2023/02/10 11:10:02;;;;;;;22.43;13.70;;;;;;;;;;5013859;28;20194;-71
2023/02/10 11:12:31;;;;;;;21.77;12.97;;;;;;;;;;5010945;28;20226;-72
2023/02/10 11:14:57;;;;;;;23.43;14.93;;;;;;;;;;5011783;28;20186;-72
2023/02/10 11:17:40;;;;;;;22.27;14.47;;;;;;;;;;5014355;28;20183;-72
2023/02/10 11:20:12;;;;;;;24.53;13.73;;;;;;;;;;5009514;28;20274;-72
2023/02/10 11:22:37;;;;;;;21.07;13.07;;;;;;;;;;5012657;28;20194;-71
2023/02/10 11:25:16;;;;;;;21.43;13.40;;;;;;;;;;5021354;28;20187;-71
2023/02/10 11:27:49;;;;;;;22.07;13.93;;;;;;;;;;5004878;28;20257;-71
2023/02/10 11:30:40;;;;;;;20.80;13.37;;;;;;;;;;5016341;28;20186;-71
2023/02/10 11:33:06;;;;;;;22.53;12.67;;;;;;;;;;5009939;28;20281;-71
2023/02/10 11:35:32;;;;;;;24.53;14.90;;;;;;;;;;5015426;28;20246;-71
2023/02/10 11:38:05;;;;;;;22.57;13.30;;;;;;;;;;5014789;28;20182;-71
2023/02/10 11:40:38;;;;;;;19.03;13.60;;;;;;;;;;5016357;28;20301;-71
2023/02/10 11:43:05;;;;;;;21.90;13.07;;;;;;;;;;5013916;28;20199;-72
2023/02/10 11:45:31;;;;;;;26.47;14.83;;;;;;;;;;5013855;28;20183;-72
2023/02/10 11:48:00;;;;;;;25.97;14.83;;;;;;;;;;5014059;28;20190;-72
2023/02/10 11:50:27;;;;;;;22.37;13.67;;;;;;;;;;5011132;28;20772;-72
2023/02/10 11:52:52;;;;;;;22.17;14.90;;;;;;;;;;5010197;28;20203;-72
2023/02/10 11:55:18;;;;;;;25.70;14.47;;;;;;;;;;5014914;28;20178;-72
2023/02/10 12:00:54;;;;;;;24.10;13.93;;;;;;;;;;5013208;28;20277;-72
2023/02/10 12:03:35;;;;;;;23.57;13.60;;;;;;;;;;5012312;28;20199;-71
2023/02/10 12:06:18;;;;;;;25.13;13.57;;;;;;;;;;5012990;28;20175;-71
2023/02/10 12:09:02;;;;;;;25.63;14.87;;;;;;;;;;5011104;28;20265;-71
2023/02/10 12:11:29;;;;;;;24.80;14.20;;;;;;;;;;5015949;28;20198;-71
2023/02/10 12:14:00;;;;;;;25.03;15.13;;;;;;;;;;5014711;28;20233;-72
2023/02/10 12:16:28;;;;;;;24.27;15.20;;;;;;;;;;5026098;28;20187;-71
2023/02/10 12:19:13;;;;;;;22.90;14.53;;;;;;;;;;5012434;28;20265;-72
2023/02/10 12:21:48;;;;;;;26.43;14.40;;;;;;;;;;5007038;28;20172;-71
2023/02/10 12:24:48;;;;;;;26.23;15.07;;;;;;;;;;5020514;28;20170;-72
2023/02/10 12:27:18;;;;;;;27.60;16.03;;;;;;;;;;4951368;28;20770;-71
2023/02/10 12:29:43;;;;;;;26.70;17.40;;;;;;;;;;5001121;28;20195;-71
2023/02/10 12:32:28;;;;;;;29.43;17.67;;;;;;;;;;5014580;28;20221;-72
2023/02/10 12:35:00;;;;;;;28.00;16.47;;;;;;;;;;5011669;28;20179;-71
2023/02/10 12:37:44;;;;;;;30.67;17.07;;;;;;;;;;5012194;28;20215;-71
2023/02/10 12:40:19;;;;;;;32.93;19.53;;;;;;;;;;5016846;28;20555;-71
2023/02/10 12:43:03;;;;;;;30.63;17.43;;;;;;;;;;5010910;28;20937;-71
2023/02/10 12:45:49;;;;;;;44.67;19.07;;;;;;;;;;5022858;28;20541;-71
2023/02/10 12:48:41;;;;;;;29.40;17.23;;;;;;;;;;5012322;28;20233;-71
2023/02/10 12:51:21;;;;;;;34.20;18.50;;;;;;;;;;5003926;28;20253;-71
2023/02/10 12:53:49;;;;;;;35.00;20.20;;;;;;;;;;5010779;28;20206;-71
2023/02/10 12:56:19;;;;;;;32.30;19.37;;;;;;;;;;5012193;28;20210;-71
2023/02/10 12:58:50;;;;;;;38.53;19.90;;;;;;;;;;5008286;28;20207;-71
2023/02/10 13:01:19;;;;;;;28.73;17.93;;;;;;;;;;5011494;28;20644;-71
2023/02/10 13:03:46;;;;;;;30.60;19.23;;;;;;;;;;5009460;28;20245;-71
2023/02/10 13:06:18;;;;;;;39.37;23.17;;;;;;;;;;5015049;28;20312;-71
2023/02/10 13:08:48;;;;;;;36.20;21.60;;;;;;;;;;5010303;28;20201;-71
2023/02/10 13:11:17;;;;;;;35.60;20.27;;;;;;;;;;5011559;28;20266;-71
2023/02/10 13:13:44;;;;;;;34.73;20.90;;;;;;;;;;5013756;28;20203;-71
2023/02/10 13:16:12;;;;;;;36.20;21.60;;;;;;;;;;5016132;28;20201;-71
2023/02/10 13:18:43;;;;;;;40.10;20.87;;;;;;;;;;5011112;28;20186;-71
2023/02/10 13:21:23;;;;;;;35.03;20.83;;;;;;;;;;5013672;28;20179;-71
2023/02/10 13:23:49;;;;;;;34.00;21.27;;;;;;;;;;5014454;28;20224;-71
2023/02/10 13:26:14;;;;;;;37.33;20.27;;;;;;;;;;5013442;28;20260;-71
2023/02/10 13:28:46;;;;;;;37.87;21.53;;;;;;;;;;5014832;28;20595;-71
2023/02/10 13:31:30;;;;;;;37.60;21.63;;;;;;;;;;5010846;28;20189;-71
2023/02/10 13:34:01;;;;;;;37.93;21.77;;;;;;;;;;5009823;28;20194;-72
2023/02/10 13:36:27;;;;;;;40.93;23.33;;;;;;;;;;5011315;28;20177;-71
2023/02/10 13:39:18;;;;;;;36.47;22.70;;;;;;;;;;5011592;28;20238;-71
2023/02/10 13:41:46;;;;;;;36.80;21.70;;;;;;;;;;5006354;28;20328;-71
2023/02/10 13:44:31;;;;;;;38.70;23.03;;;;;;;;;;5012688;28;20178;-72
2023/02/10 13:47:09;;;;;;;36.13;21.43;;;;;;;;;;5012679;28;20201;-71
2023/02/10 13:50:10;;;;;;;36.93;21.33;;;;;;;;;;5024231;28;20813;-71
2023/02/10 13:52:35;;;;;;;37.97;22.73;;;;;;;;;;4930357;29;20201;-72
2023/02/10 13:55:23;;;;;;;39.03;24.33;;;;;;;;;;4992800;28;20203;-71
2023/02/10 13:57:59;;;;;;;41.63;25.03;;;;;;;;;;5007776;28;20237;-72
2023/02/10 14:00:26;;;;;;;39.63;24.97;;;;;;;;;;5014196;28;20280;-72
2023/02/10 14:02:59;;;;;;;39.63;24.53;;;;;;;;;;5017229;28;20247;-71
2023/02/10 14:05:26;;;;;;;42.17;25.30;;;;;;;;;;5011603;28;20210;-71
2023/02/10 14:07:52;;;;;;;40.17;25.13;;;;;;;;;;5011322;28;20270;-71
2023/02/10 14:10:20;;;;;;;40.87;24.53;;;;;;;;;;5014042;28;20269;-71
2023/02/10 14:12:55;;;;;;;35.93;22.87;;;;;;;;;;5011132;28;20202;-71
2023/02/10 14:15:22;;;;;;;42.23;24.17;;;;;;;;;;5009586;28;20257;-72
2023/02/10 14:18:09;;;;;;;35.47;24.00;;;;;;;;;;5007782;28;20193;-72
2023/02/10 14:20:36;;;;;;;42.13;24.27;;;;;;;;;;5000581;28;20222;-71
2023/02/10 14:23:03;;;;;;;35.50;21.93;;;;;;;;;;5004674;28;20234;-71
2023/02/10 14:25:34;;;;;;;34.27;23.13;;;;;;;;;;5009338;28;20182;-71